sensor_id;sensor_type;location;lat;lon;timestamp;pressure;altitude;pressure_sealevel;temperature;humidity
9474;BME280;8865;47.636;7.692;2023-06-19T00:02:11;97987.03;;;20.75;nan
9474;BME280;8865;47.636;7.692;2023-06-19T00:04:38;97977.81;;;20.84;nan
9474;BME280;8865;47.636;7.692;2023-06-19T00:07:04;97988.66;;;20.90;nan
9474;BME280;8865;47.636;7.692;2023-06-19T00:09:30;98000.94;;;20.97;nan
9474;BME280;8865;47.636;7.692;2023-06-19T00:11:56;98009.53;;;20.99;nan
9474;BME280;8865;47.636;7.692;2023-06-19T00:14:23;98007.50;;;21.01;nan
9474;BME280;8865;47.636;7.692;2023-06-19T00:16:49;98013.84;;;21.07;nan
9474;BME280;8865;47.636;7.692;2023-06-19T00:19:16;98001.75;;;21.18;nan
9474;BME280;8865;47.636;7.692;2023-06-19T00:21:43;98009.31;;;21.14;nan
9474;BME280;8865;47.636;7.692;2023-06-19T00:24:10;98013.19;;;21.25;nan
9474;BME280;8865;47.636;7.692;2023-06-19T00:26:36;98018.75;;;21.30;nan
9474;BME280;8865;47.636;7.692;2023-06-19T00:29:02;98021.59;;;21.35;nan
9474;BME280;8865;47.636;7.692;2023-06-19T00:31:29;98028.56;;;21.36;nan
9474;BME280;8865;47.636;7.692;2023-06-19T00:33:55;98037.97;;;21.39;nan
9474;BME280;8865;47.636;7.692;2023-06-19T00:36:21;98041.47;;;21.33;nan
9474;BME280;8865;47.636;7.692;2023-06-19T00:38:49;98038.81;;;21.39;nan
9474;BME280;8865;47.636;7.692;2023-06-19T00:41:15;98048.44;;;21.40;nan
9474;BME280;8865;47.636;7.692;2023-06-19T00:43:42;98053.97;;;21.46;nan
9474;BME280;8865;47.636;7.692;2023-06-19T00:46:08;98060.53;;;21.36;nan
9474;BME280;8865;47.636;7.692;2023-06-19T00:48:35;98070.78;;;21.39;nan
9474;BME280;8865;47.636;7.692;2023-06-19T00:51:01;98079.56;;;21.47;nan
9474;BME280;8865;47.636;7.692;2023-06-19T00:53:27;98089.44;;;21.53;nan
9474;BME280;8865;47.636;7.692;2023-06-19T00:55:56;98102.16;;;21.51;nan
9474;BME280;8865;47.636;7.692;2023-06-19T00:58:22;98105.22;;;21.48;nan
9474;BME280;8865;47.636;7.692;2023-06-19T01:00:48;98125.69;;;21.40;nan
9474;BME280;8865;47.636;7.692;2023-06-19T01:03:15;98138.22;;;21.33;nan
9474;BME280;8865;47.636;7.692;2023-06-19T01:05:42;98147.44;;;21.31;nan
9474;BME280;8865;47.636;7.692;2023-06-19T01:10:53;98156.66;;;21.15;nan
9474;BME280;8865;47.636;7.692;2023-06-19T01:13:27;98173.84;;;21.12;nan
9474;BME280;8865;47.636;7.692;2023-06-19T01:15:56;98192.84;;;21.02;nan
9474;BME280;8865;47.636;7.692;2023-06-19T01:18:23;98172.75;;;20.80;nan
9474;BME280;8865;47.636;7.692;2023-06-19T01:20:51;98175.56;;;20.72;nan
9474;BME280;8865;47.636;7.692;2023-06-19T01:23:17;98201.91;;;20.60;nan
9474;BME280;8865;47.636;7.692;2023-06-19T01:25:42;98201.47;;;20.56;nan
9474;BME280;8865;47.636;7.692;2023-06-19T01:28:10;98203.34;;;20.62;nan
9474;BME280;8865;47.636;7.692;2023-06-19T01:30:40;98198.59;;;20.58;nan
9474;BME280;8865;47.636;7.692;2023-06-19T01:33:11;98207.19;;;20.53;nan
9474;BME280;8865;47.636;7.692;2023-06-19T01:35:40;98218.41;;;20.42;nan
9474;BME280;8865;47.636;7.692;2023-06-19T01:38:08;98227.78;;;20.38;nan
9474;BME280;8865;47.636;7.692;2023-06-19T01:40:35;98226.09;;;20.30;nan
9474;BME280;8865;47.636;7.692;2023-06-19T01:43:02;98243.28;;;20.27;nan
9474;BME280;8865;47.636;7.692;2023-06-19T01:45:30;98247.75;;;20.27;nan
9474;BME280;8865;47.636;7.692;2023-06-19T01:47:56;98248.94;;;20.17;nan
9474;BME280;8865;47.636;7.692;2023-06-19T01:50:23;98240.03;;;20.04;nan
9474;BME280;8865;47.636;7.692;2023-06-19T01:52:50;98235.88;;;19.94;nan
9474;BME280;8865;47.636;7.692;2023-06-19T01:55:16;98235.38;;;20.06;nan
9474;BME280;8865;47.636;7.692;2023-06-19T01:57:42;98235.69;;;19.96;nan
9474;BME280;8865;47.636;7.692;2023-06-19T02:00:08;98251.31;;;20.06;nan
9474;BME280;8865;47.636;7.692;2023-06-19T02:02:36;98249.06;;;20.03;nan
9474;BME280;8865;47.636;7.692;2023-06-19T02:05:03;98254.91;;;19.98;nan
9474;BME280;8865;47.636;7.692;2023-06-19T02:07:29;98262.28;;;19.96;nan
9474;BME280;8865;47.636;7.692;2023-06-19T02:09:55;98266.31;;;19.92;nan
9474;BME280;8865;47.636;7.692;2023-06-19T02:12:21;98264.63;;;19.84;nan
9474;BME280;8865;47.636;7.692;2023-06-19T02:14:47;98261.34;;;19.82;nan
9474;BME280;8865;47.636;7.692;2023-06-19T02:17:13;98261.09;;;19.77;nan
9474;BME280;8865;47.636;7.692;2023-06-19T02:19:39;98263.56;;;19.78;nan
9474;BME280;8865;47.636;7.692;2023-06-19T02:22:05;98256.16;;;19.74;nan
9474;BME280;8865;47.636;7.692;2023-06-19T02:24:32;98259.94;;;19.65;nan
9474;BME280;8865;47.636;7.692;2023-06-19T02:26:58;98261.13;;;19.62;nan
9474;BME280;8865;47.636;7.692;2023-06-19T02:29:25;98275.44;;;19.61;nan
9474;BME280;8865;47.636;7.692;2023-06-19T02:31:51;98264.00;;;19.60;nan
9474;BME280;8865;47.636;7.692;2023-06-19T02:34:17;98254.38;;;19.59;nan
9474;BME280;8865;47.636;7.692;2023-06-19T02:36:43;98262.13;;;19.61;nan
9474;BME280;8865;47.636;7.692;2023-06-19T02:39:09;98275.44;;;19.61;nan
9474;BME280;8865;47.636;7.692;2023-06-19T02:41:35;98281.13;;;19.58;nan
9474;BME280;8865;47.636;7.692;2023-06-19T02:44:03;98280.81;;;19.46;nan
9474;BME280;8865;47.636;7.692;2023-06-19T02:46:29;98286.69;;;19.41;nan
9474;BME280;8865;47.636;7.692;2023-06-19T02:48:55;98285.22;;;19.39;nan
9474;BME280;8865;47.636;7.692;2023-06-19T02:51:20;98286.19;;;19.53;nan
9474;BME280;8865;47.636;7.692;2023-06-19T02:53:46;98285.81;;;19.56;nan
9474;BME280;8865;47.636;7.692;2023-06-19T02:56:13;98279.31;;;19.58;nan
9474;BME280;8865;47.636;7.692;2023-06-19T02:58:39;98279.31;;;19.58;nan
9474;BME280;8865;47.636;7.692;2023-06-19T03:01:05;98278.22;;;19.53;nan
9474;BME280;8865;47.636;7.692;2023-06-19T03:03:34;98285.09;;;19.47;nan
9474;BME280;8865;47.636;7.692;2023-06-19T03:06:07;98296.09;;;19.44;nan
9474;BME280;8865;47.636;7.692;2023-06-19T03:08:34;98287.34;;;19.28;nan
9474;BME280;8865;47.636;7.692;2023-06-19T03:11:00;98275.13;;;19.27;nan
9474;BME280;8865;47.636;7.692;2023-06-19T03:13:27;98275.78;;;19.36;nan
9474;BME280;8865;47.636;7.692;2023-06-19T03:15:53;98279.91;;;19.39;nan
9474;BME280;8865;47.636;7.692;2023-06-19T03:18:19;98274.41;;;19.40;nan
9474;BME280;8865;47.636;7.692;2023-06-19T03:20:45;98277.69;;;19.42;nan
9474;BME280;8865;47.636;7.692;2023-06-19T03:23:10;98275.88;;;19.43;nan
9474;BME280;8865;47.636;7.692;2023-06-19T03:25:36;98276.06;;;19.41;nan
9474;BME280;8865;47.636;7.692;2023-06-19T03:28:03;98282.75;;;19.37;nan
9474;BME280;8865;47.636;7.692;2023-06-19T03:30:29;98288.63;;;19.33;nan
9474;BME280;8865;47.636;7.692;2023-06-19T03:32:55;98287.44;;;19.35;nan
9474;BME280;8865;47.636;7.692;2023-06-19T03:35:21;98295.22;;;19.37;nan
9474;BME280;8865;47.636;7.692;2023-06-19T03:37:47;98298.25;;;19.34;nan
9474;BME280;8865;47.636;7.692;2023-06-19T03:40:13;98297.03;;;19.36;nan
9474;BME280;8865;47.636;7.692;2023-06-19T03:42:41;98294.19;;;19.38;nan
9474;BME280;8865;47.636;7.692;2023-06-19T03:45:07;98303.19;;;19.37;nan
9474;BME280;8865;47.636;7.692;2023-06-19T03:47:33;98292.28;;;19.32;nan
9474;BME280;8865;47.636;7.692;2023-06-19T03:49:59;98300.56;;;19.22;nan
9474;BME280;8865;47.636;7.692;2023-06-19T03:52:25;98288.34;;;19.06;nan
9474;BME280;8865;47.636;7.692;2023-06-19T03:54:51;98300.13;;;19.18;nan
9474;BME280;8865;47.636;7.692;2023-06-19T03:57:17;98284.38;;;19.17;nan
9474;BME280;8865;47.636;7.692;2023-06-19T03:59:43;98282.81;;;19.22;nan
9474;BME280;8865;47.636;7.692;2023-06-19T04:02:09;98287.72;;;19.25;nan
9474;BME280;8865;47.636;7.692;2023-06-19T04:04:35;98287.72;;;19.25;nan
9474;BME280;8865;47.636;7.692;2023-06-19T04:07:01;98299.25;;;19.33;nan
9474;BME280;8865;47.636;7.692;2023-06-19T04:09:27;98293.75;;;19.34;nan
9474;BME280;8865;47.636;7.692;2023-06-19T04:11:53;98298.44;;;19.32;nan
9474;BME280;8865;47.636;7.692;2023-06-19T04:14:19;98301.09;;;19.32;nan
9474;BME280;8865;47.636;7.692;2023-06-19T04:16:45;98290.47;;;19.32;nan
9474;BME280;8865;47.636;7.692;2023-06-19T04:19:11;98287.25;;;19.37;nan
9474;BME280;8865;47.636;7.692;2023-06-19T04:21:36;98284.78;;;19.35;nan
9474;BME280;8865;47.636;7.692;2023-06-19T04:24:03;98280.91;;;19.38;nan
9474;BME280;8865;47.636;7.692;2023-06-19T04:26:30;98280.91;;;19.38;nan
9474;BME280;8865;47.636;7.692;2023-06-19T04:28:56;98281.75;;;19.38;nan
9474;BME280;8865;47.636;7.692;2023-06-19T04:31:22;98272.75;;;19.39;nan
9474;BME280;8865;47.636;7.692;2023-06-19T04:33:49;98269.72;;;19.42;nan
9474;BME280;8865;47.636;7.692;2023-06-19T04:36:15;98268.91;;;19.42;nan
9474;BME280;8865;47.636;7.692;2023-06-19T04:38:41;98265.44;;;19.41;nan
9474;BME280;8865;47.636;7.692;2023-06-19T04:41:07;98260.75;;;19.43;nan
9474;BME280;8865;47.636;7.692;2023-06-19T04:43:33;98262.47;;;19.51;nan
9474;BME280;8865;47.636;7.692;2023-06-19T04:45:59;98261.09;;;19.55;nan
9474;BME280;8865;47.636;7.692;2023-06-19T04:48:26;98261.13;;;19.62;nan
9474;BME280;8865;47.636;7.692;2023-06-19T04:50:52;98259.00;;;19.51;nan
9474;BME280;8865;47.636;7.692;2023-06-19T04:53:18;98260.72;;;19.58;nan
9474;BME280;8865;47.636;7.692;2023-06-19T04:55:44;98242.72;;;19.60;nan
9474;BME280;8865;47.636;7.692;2023-06-19T04:58:10;98247.66;;;19.63;nan
9474;BME280;8865;47.636;7.692;2023-06-19T05:00:36;98249.94;;;19.67;nan
9474;BME280;8865;47.636;7.692;2023-06-19T05:03:02;98251.53;;;19.83;nan
9474;BME280;8865;47.636;7.692;2023-06-19T05:05:28;98254.69;;;19.93;nan
9474;BME280;8865;47.636;7.692;2023-06-19T05:07:54;98254.31;;;19.96;nan
9474;BME280;8865;47.636;7.692;2023-06-19T05:10:20;98254.59;;;20.08;nan
9474;BME280;8865;47.636;7.692;2023-06-19T05:12:47;98241.53;;;20.13;nan
9474;BME280;8865;47.636;7.692;2023-06-19T05:15:12;98246.03;;;20.12;nan
9474;BME280;8865;47.636;7.692;2023-06-19T05:17:38;98232.59;;;20.21;nan
9474;BME280;8865;47.636;7.692;2023-06-19T05:20:05;98228.13;;;20.28;nan
9474;BME280;8865;47.636;7.692;2023-06-19T05:22:33;98234.91;;;20.30;nan
9474;BME280;8865;47.636;7.692;2023-06-19T05:25:00;98232.09;;;20.39;nan
9474;BME280;8865;47.636;7.692;2023-06-19T05:27:26;98238.03;;;20.41;nan
9474;BME280;8865;47.636;7.692;2023-06-19T05:29:52;98224.91;;;20.39;nan
9474;BME280;8865;47.636;7.692;2023-06-19T05:32:18;98226.56;;;20.40;nan
9474;BME280;8865;47.636;7.692;2023-06-19T05:34:44;98223.94;;;20.47;nan
9474;BME280;8865;47.636;7.692;2023-06-19T05:37:10;98224.38;;;20.50;nan
9474;BME280;8865;47.636;7.692;2023-06-19T05:39:36;98226.41;;;20.48;nan
9474;BME280;8865;47.636;7.692;2023-06-19T05:42:02;98227.06;;;20.57;nan
9474;BME280;8865;47.636;7.692;2023-06-19T05:44:28;98221.34;;;20.60;nan
9474;BME280;8865;47.636;7.692;2023-06-19T05:46:54;98221.34;;;20.60;nan
9474;BME280;8865;47.636;7.692;2023-06-19T05:49:20;98209.50;;;20.63;nan
9474;BME280;8865;47.636;7.692;2023-06-19T05:51:46;98204.63;;;20.66;nan
9474;BME280;8865;47.636;7.692;2023-06-19T05:54:12;98211.19;;;20.71;nan
9474;BME280;8865;47.636;7.692;2023-06-19T05:56:38;98204.69;;;20.86;nan
9474;BME280;8865;47.636;7.692;2023-06-19T05:59:04;98206.34;;;20.94;nan
9474;BME280;8865;47.636;7.692;2023-06-19T06:01:30;98210.53;;;21.10;nan
9474;BME280;8865;47.636;7.692;2023-06-19T06:03:56;98208.06;;;21.22;nan
9474;BME280;8865;47.636;7.692;2023-06-19T06:06:23;98216.69;;;21.37;nan
9474;BME280;8865;47.636;7.692;2023-06-19T06:08:49;98212.00;;;21.46;nan
9474;BME280;8865;47.636;7.692;2023-06-19T06:11:17;98215.31;;;21.62;nan
9474;BME280;8865;47.636;7.692;2023-06-19T06:13:43;98219.22;;;21.66;nan
9474;BME280;8865;47.636;7.692;2023-06-19T06:16:09;98206.91;;;21.71;nan
9474;BME280;8865;47.636;7.692;2023-06-19T06:18:35;98201.59;;;21.78;nan
9474;BME280;8865;47.636;7.692;2023-06-19T06:21:01;98197.88;;;21.79;nan
9474;BME280;8865;47.636;7.692;2023-06-19T06:25:53;98196.25;;;21.85;nan
9474;BME280;8865;47.636;7.692;2023-06-19T06:28:26;98194.38;;;21.85;nan
9474;BME280;8865;47.636;7.692;2023-06-19T06:30:52;98189.06;;;21.79;nan
9474;BME280;8865;47.636;7.692;2023-06-19T06:33:18;98183.97;;;21.70;nan
9474;BME280;8865;47.636;7.692;2023-06-19T06:35:44;98171.84;;;21.74;nan
9474;BME280;8865;47.636;7.692;2023-06-19T06:38:10;98174.31;;;21.83;nan
9474;BME280;8865;47.636;7.692;2023-06-19T06:40:36;98184.94;;;21.96;nan
9474;BME280;8865;47.636;7.692;2023-06-19T06:43:02;98181.25;;;22.10;nan
9474;BME280;8865;47.636;7.692;2023-06-19T06:45:28;98192.09;;;22.16;nan
9474;BME280;8865;47.636;7.692;2023-06-19T06:47:54;98183.47;;;22.20;nan
9474;BME280;8865;47.636;7.692;2023-06-19T06:50:20;98178.53;;;22.24;nan
9474;BME280;8865;47.636;7.692;2023-06-19T06:52:46;98179.16;;;22.39;nan
9474;BME280;8865;47.636;7.692;2023-06-19T06:55:12;98183.44;;;22.47;nan
9474;BME280;8865;47.636;7.692;2023-06-19T06:57:39;98178.47;;;22.51;nan
9474;BME280;8865;47.636;7.692;2023-06-19T07:00:05;98182.78;;;22.52;nan
9474;BME280;8865;47.636;7.692;2023-06-19T07:02:33;98184.00;;;22.56;nan
9474;BME280;8865;47.636;7.692;2023-06-19T07:04:59;98188.91;;;22.59;nan
9474;BME280;8865;47.636;7.692;2023-06-19T07:07:25;98178.44;;;22.64;nan
9474;BME280;8865;47.636;7.692;2023-06-19T07:09:51;98178.22;;;22.65;nan
9474;BME280;8865;47.636;7.692;2023-06-19T07:12:17;98177.69;;;22.89;nan
9474;BME280;8865;47.636;7.692;2023-06-19T07:14:43;98177.66;;;22.95;nan
9474;BME280;8865;47.636;7.692;2023-06-19T07:17:09;98164.28;;;22.95;nan
9474;BME280;8865;47.636;7.692;2023-06-19T07:19:35;98164.44;;;23.07;nan
9474;BME280;8865;47.636;7.692;2023-06-19T07:22:01;98171.28;;;22.96;nan
9474;BME280;8865;47.636;7.692;2023-06-19T07:24:27;98158.63;;;23.24;nan
9474;BME280;8865;47.636;7.692;2023-06-19T07:26:53;98157.97;;;23.53;nan
9474;BME280;8865;47.636;7.692;2023-06-19T07:29:20;98162.28;;;23.54;nan
9474;BME280;8865;47.636;7.692;2023-06-19T07:31:47;98150.78;;;23.72;nan
9474;BME280;8865;47.636;7.692;2023-06-19T07:34:13;98152.38;;;23.80;nan
9474;BME280;8865;47.636;7.692;2023-06-19T07:36:39;98145.97;;;24.06;nan
9474;BME280;8865;47.636;7.692;2023-06-19T07:39:05;98151.38;;;24.37;nan
9474;BME280;8865;47.636;7.692;2023-06-19T07:41:31;98157.03;;;24.66;nan
9474;BME280;8865;47.636;7.692;2023-06-19T07:43:57;98141.97;;;24.83;nan
9474;BME280;8865;47.636;7.692;2023-06-19T07:46:23;98143.47;;;25.21;nan
9474;BME280;8865;47.636;7.692;2023-06-19T07:48:49;98138.47;;;25.25;nan
9474;BME280;8865;47.636;7.692;2023-06-19T07:51:16;98140.88;;;25.45;nan
9474;BME280;8865;47.636;7.692;2023-06-19T07:53:42;98144.03;;;25.54;nan
9474;BME280;8865;47.636;7.692;2023-06-19T07:56:09;98134.81;;;25.49;nan
9474;BME280;8865;47.636;7.692;2023-06-19T07:58:35;98135.50;;;25.33;nan
9474;BME280;8865;47.636;7.692;2023-06-19T08:01:01;98135.22;;;25.23;nan
9474;BME280;8865;47.636;7.692;2023-06-19T08:03:27;98126.59;;;25.21;nan
9474;BME280;8865;47.636;7.692;2023-06-19T08:05:53;98123.88;;;25.09;nan
9474;BME280;8865;47.636;7.692;2023-06-19T08:08:19;98124.78;;;25.03;nan
9474;BME280;8865;47.636;7.692;2023-06-19T08:10:45;98127.66;;;24.89;nan
9474;BME280;8865;47.636;7.692;2023-06-19T08:13:10;98123.31;;;24.76;nan
9474;BME280;8865;47.636;7.692;2023-06-19T08:15:39;98130.66;;;24.81;nan
9474;BME280;8865;47.636;7.692;2023-06-19T08:18:05;98134.09;;;25.00;nan
9474;BME280;8865;47.636;7.692;2023-06-19T08:20:31;98127.59;;;25.08;nan
9474;BME280;8865;47.636;7.692;2023-06-19T08:22:57;98131.84;;;25.27;nan
9474;BME280;8865;47.636;7.692;2023-06-19T08:25:23;98132.59;;;25.46;nan
9474;BME280;8865;47.636;7.692;2023-06-19T08:27:49;98132.50;;;25.53;nan
9474;BME280;8865;47.636;7.692;2023-06-19T08:30:16;98132.84;;;25.69;nan
9474;BME280;8865;47.636;7.692;2023-06-19T08:32:43;98123.38;;;25.90;nan
9474;BME280;8865;47.636;7.692;2023-06-19T08:35:09;98121.78;;;26.00;nan
9474;BME280;8865;47.636;7.692;2023-06-19T08:37:37;98121.72;;;26.12;nan
9474;BME280;8865;47.636;7.692;2023-06-19T08:40:04;98111.91;;;26.30;nan
9474;BME280;8865;47.636;7.692;2023-06-19T08:42:35;98118.06;;;26.30;nan
9474;BME280;8865;47.636;7.692;2023-06-19T08:45:01;98117.66;;;26.50;nan
9474;BME280;8865;47.636;7.692;2023-06-19T08:47:31;98109.97;;;26.54;nan
9474;BME280;8865;47.636;7.692;2023-06-19T08:49:58;98091.31;;;26.64;nan
9474;BME280;8865;47.636;7.692;2023-06-19T08:52:24;98095.66;;;26.65;nan
9474;BME280;8865;47.636;7.692;2023-06-19T08:54:50;98088.31;;;26.72;nan
9474;BME280;8865;47.636;7.692;2023-06-19T08:57:16;98085.56;;;27.01;nan
9474;BME280;8865;47.636;7.692;2023-06-19T08:59:49;98089.38;;;27.05;nan
9474;BME280;8865;47.636;7.692;2023-06-19T09:02:18;98085.91;;;27.22;nan
9474;BME280;8865;47.636;7.692;2023-06-19T09:04:44;98082.88;;;27.35;nan
9474;BME280;8865;47.636;7.692;2023-06-19T09:07:12;98079.22;;;27.58;nan
9474;BME280;8865;47.636;7.692;2023-06-19T09:09:44;98082.75;;;27.81;nan
9474;BME280;8865;47.636;7.692;2023-06-19T09:12:13;98069.44;;;27.91;nan
9474;BME280;8865;47.636;7.692;2023-06-19T09:14:42;98079.63;;;28.06;nan
9474;BME280;8865;47.636;7.692;2023-06-19T09:17:12;98072.53;;;28.00;nan
9474;BME280;8865;47.636;7.692;2023-06-19T09:19:47;98068.34;;;28.09;nan
9474;BME280;8865;47.636;7.692;2023-06-19T09:22:13;98069.31;;;28.25;nan
9474;BME280;8865;47.636;7.692;2023-06-19T09:24:40;98063.41;;;28.50;nan
9474;BME280;8865;47.636;7.692;2023-06-19T09:27:10;98062.66;;;28.82;nan
9474;BME280;8865;47.636;7.692;2023-06-19T09:29:46;98056.31;;;28.99;nan
9474;BME280;8865;47.636;7.692;2023-06-19T09:32:34;98061.50;;;29.38;nan
9474;BME280;8865;47.636;7.692;2023-06-19T09:35:01;98050.19;;;29.41;nan
9474;BME280;8865;47.636;7.692;2023-06-19T09:37:30;98046.22;;;29.54;nan
9474;BME280;8865;47.636;7.692;2023-06-19T09:39:58;98055.31;;;29.85;nan
9474;BME280;8865;47.636;7.692;2023-06-19T09:42:31;98049.22;;;30.16;nan
9474;BME280;8865;47.636;7.692;2023-06-19T09:45:03;98048.66;;;30.08;nan
9474;BME280;8865;47.636;7.692;2023-06-19T09:47:37;98035.56;;;30.43;nan
9474;BME280;8865;47.636;7.692;2023-06-19T09:50:05;98032.59;;;30.80;nan
9474;BME280;8865;47.636;7.692;2023-06-19T09:52:32;98025.88;;;31.04;nan
9474;BME280;8865;47.636;7.692;2023-06-19T09:55:04;98021.28;;;31.04;nan
9474;BME280;8865;47.636;7.692;2023-06-19T09:57:34;98023.63;;;31.47;nan
9474;BME280;8865;47.636;7.692;2023-06-19T10:00:03;98017.66;;;31.50;nan
9474;BME280;8865;47.636;7.692;2023-06-19T10:02:39;98019.03;;;31.52;nan
9474;BME280;8865;47.636;7.692;2023-06-19T10:05:06;98018.38;;;31.92;nan
9474;BME280;8865;47.636;7.692;2023-06-19T10:07:38;98026.75;;;32.50;nan
9474;BME280;8865;47.636;7.692;2023-06-19T10:10:11;98019.88;;;33.03;nan
9474;BME280;8865;47.636;7.692;2023-06-19T10:12:45;98016.25;;;33.42;nan
9474;BME280;8865;47.636;7.692;2023-06-19T10:17:53;98008.56;;;34.16;nan
9474;BME280;8865;47.636;7.692;2023-06-19T10:20:39;97999.91;;;34.72;nan
9474;BME280;8865;47.636;7.692;2023-06-19T10:23:06;97998.91;;;35.00;nan
9474;BME280;8865;47.636;7.692;2023-06-19T10:25:35;98004.31;;;35.47;nan
9474;BME280;8865;47.636;7.692;2023-06-19T10:28:02;98003.53;;;35.88;nan
9474;BME280;8865;47.636;7.692;2023-06-19T10:30:31;97992.94;;;35.59;nan
9474;BME280;8865;47.636;7.692;2023-06-19T10:33:00;97992.63;;;35.47;nan
9474;BME280;8865;47.636;7.692;2023-06-19T10:35:28;98011.28;;;35.39;nan
9474;BME280;8865;47.636;7.692;2023-06-19T10:37:54;98006.69;;;35.21;nan
9474;BME280;8865;47.636;7.692;2023-06-19T10:40:20;98006.94;;;34.92;nan
9474;BME280;8865;47.636;7.692;2023-06-19T10:42:51;98004.00;;;34.69;nan
9474;BME280;8865;47.636;7.692;2023-06-19T10:45:17;98003.88;;;34.60;nan
9474;BME280;8865;47.636;7.692;2023-06-19T10:47:46;97996.69;;;34.50;nan
9474;BME280;8865;47.636;7.692;2023-06-19T10:50:41;97991.81;;;34.66;nan
9474;BME280;8865;47.636;7.692;2023-06-19T10:53:43;97996.44;;;34.66;nan
9474;BME280;8865;47.636;7.692;2023-06-19T10:56:20;97999.06;;;34.71;nan
9474;BME280;8865;47.636;7.692;2023-06-19T10:59:08;97996.34;;;34.71;nan
9474;BME280;8865;47.636;7.692;2023-06-19T11:01:42;97990.50;;;34.97;nan
9474;BME280;8865;47.636;7.692;2023-06-19T11:04:10;97981.25;;;34.98;nan
9474;BME280;8865;47.636;7.692;2023-06-19T11:06:37;97982.44;;;34.92;nan
9474;BME280;8865;47.636;7.692;2023-06-19T11:09:05;97980.56;;;34.73;nan
9474;BME280;8865;47.636;7.692;2023-06-19T11:11:36;97987.00;;;34.44;nan
9474;BME280;8865;47.636;7.692;2023-06-19T11:14:02;97988.63;;;34.45;nan
9474;BME280;8865;47.636;7.692;2023-06-19T11:16:28;97981.72;;;34.86;nan
9474;BME280;8865;47.636;7.692;2023-06-19T11:18:58;97969.19;;;36.38;nan
9474;BME280;8865;47.636;7.692;2023-06-19T11:21:31;97963.97;;;37.76;nan
9474;BME280;8865;47.636;7.692;2023-06-19T11:24:01;97964.97;;;39.32;nan
9474;BME280;8865;47.636;7.692;2023-06-19T11:26:27;97957.22;;;40.36;nan
9474;BME280;8865;47.636;7.692;2023-06-19T11:28:53;97961.34;;;40.63;nan
9474;BME280;8865;47.636;7.692;2023-06-19T11:31:27;97960.28;;;40.34;nan
9474;BME280;8865;47.636;7.692;2023-06-19T11:33:58;97953.06;;;39.88;nan
9474;BME280;8865;47.636;7.692;2023-06-19T11:36:24;97954.47;;;38.87;nan
9474;BME280;8865;47.636;7.692;2023-06-19T11:38:53;97957.72;;;37.84;nan
9474;BME280;8865;47.636;7.692;2023-06-19T11:41:29;97967.34;;;36.92;nan
9474;BME280;8865;47.636;7.692;2023-06-19T11:43:59;97962.22;;;35.95;nan
9474;BME280;8865;47.636;7.692;2023-06-19T11:46:30;97955.66;;;35.13;nan
9474;BME280;8865;47.636;7.692;2023-06-19T11:49:10;97966.56;;;34.28;nan
9474;BME280;8865;47.636;7.692;2023-06-19T11:51:38;97960.25;;;33.70;nan
9474;BME280;8865;47.636;7.692;2023-06-19T11:54:06;97957.22;;;33.28;nan
9474;BME280;8865;47.636;7.692;2023-06-19T11:56:33;97950.94;;;33.04;nan
9474;BME280;8865;47.636;7.692;2023-06-19T11:59:00;97953.66;;;32.74;nan
9474;BME280;8865;47.636;7.692;2023-06-19T12:01:26;97947.31;;;32.50;nan
9474;BME280;8865;47.636;7.692;2023-06-19T12:03:52;97945.28;;;32.31;nan
9474;BME280;8865;47.636;7.692;2023-06-19T12:06:18;97946.56;;;31.99;nan
9474;BME280;8865;47.636;7.692;2023-06-19T12:08:44;97951.31;;;31.68;nan
9474;BME280;8865;47.636;7.692;2023-06-19T12:11:10;97940.59;;;31.37;nan
9474;BME280;8865;47.636;7.692;2023-06-19T12:13:40;97943.34;;;31.16;nan
9474;BME280;8865;47.636;7.692;2023-06-19T12:16:07;97945.81;;;31.08;nan
9474;BME280;8865;47.636;7.692;2023-06-19T12:18:33;97942.56;;;31.01;nan
9474;BME280;8865;47.636;7.692;2023-06-19T12:21:00;97943.41;;;30.86;nan
9474;BME280;8865;47.636;7.692;2023-06-19T12:23:26;97949.34;;;30.77;nan
9474;BME280;8865;47.636;7.692;2023-06-19T12:25:53;97947.75;;;30.61;nan
9474;BME280;8865;47.636;7.692;2023-06-19T12:28:19;97953.41;;;30.54;nan
9474;BME280;8865;47.636;7.692;2023-06-19T12:30:45;97948.28;;;30.48;nan
9474;BME280;8865;47.636;7.692;2023-06-19T12:33:11;97943.66;;;30.48;nan
9474;BME280;8865;47.636;7.692;2023-06-19T12:35:40;97938.75;;;30.24;nan
9474;BME280;8865;47.636;7.692;2023-06-19T12:38:07;97940.06;;;30.12;nan
9474;BME280;8865;47.636;7.692;2023-06-19T12:40:33;97938.72;;;29.94;nan
9474;BME280;8865;47.636;7.692;2023-06-19T12:42:59;97942.41;;;29.77;nan
9474;BME280;8865;47.636;7.692;2023-06-19T12:45:25;97940.50;;;29.72;nan
9474;BME280;8865;47.636;7.692;2023-06-19T12:47:51;97933.75;;;29.70;nan
9474;BME280;8865;47.636;7.692;2023-06-19T12:50:18;97936.97;;;29.67;nan
9474;BME280;8865;47.636;7.692;2023-06-19T12:52:44;97932.09;;;29.64;nan
9474;BME280;8865;47.636;7.692;2023-06-19T12:55:09;97939.66;;;29.56;nan
9474;BME280;8865;47.636;7.692;2023-06-19T12:57:36;97928.50;;;29.43;nan
9474;BME280;8865;47.636;7.692;2023-06-19T13:00:03;97929.28;;;29.38;nan
9474;BME280;8865;47.636;7.692;2023-06-19T13:02:34;97920.66;;;29.36;nan
9474;BME280;8865;47.636;7.692;2023-06-19T13:05:00;97913.41;;;29.42;nan
9474;BME280;8865;47.636;7.692;2023-06-19T13:07:26;97913.72;;;29.55;nan
9474;BME280;8865;47.636;7.692;2023-06-19T13:09:52;97903.88;;;29.97;nan
9474;BME280;8865;47.636;7.692;2023-06-19T13:12:18;97912.84;;;30.75;nan
9474;BME280;8865;47.636;7.692;2023-06-19T13:14:44;97898.84;;;31.48;nan
9474;BME280;8865;47.636;7.692;2023-06-19T13:17:10;97892.69;;;31.93;nan
9474;BME280;8865;47.636;7.692;2023-06-19T13:19:36;97890.06;;;32.22;nan
9474;BME280;8865;47.636;7.692;2023-06-19T13:22:02;97890.50;;;32.34;nan
9474;BME280;8865;47.636;7.692;2023-06-19T13:24:28;97891.91;;;32.61;nan
9474;BME280;8865;47.636;7.692;2023-06-19T13:26:54;97888.09;;;32.62;nan
9474;BME280;8865;47.636;7.692;2023-06-19T13:29:20;97888.56;;;32.40;nan
9474;BME280;8865;47.636;7.692;2023-06-19T13:31:47;97893.50;;;32.33;nan
9474;BME280;8865;47.636;7.692;2023-06-19T13:34:13;97894.06;;;32.64;nan
9474;BME280;8865;47.636;7.692;2023-06-19T13:36:39;97891.13;;;33.38;nan
9474;BME280;8865;47.636;7.692;2023-06-19T13:39:05;97890.81;;;33.64;nan
9474;BME280;8865;47.636;7.692;2023-06-19T13:41:31;97879.09;;;34.07;nan
9474;BME280;8865;47.636;7.692;2023-06-19T13:43:59;97881.44;;;34.46;nan
9474;BME280;8865;47.636;7.692;2023-06-19T13:46:25;97878.50;;;34.76;nan
9474;BME280;8865;47.636;7.692;2023-06-19T13:48:51;97872.28;;;35.17;nan
9474;BME280;8865;47.636;7.692;2023-06-19T13:51:18;97873.50;;;35.38;nan
9474;BME280;8865;47.636;7.692;2023-06-19T13:53:44;97872.25;;;35.58;nan